createdAt,value
2023-06-04T00:00:31.589Z,71
2023-06-04T00:01:31.682Z,71
2023-06-04T00:02:31.733Z,71
2023-06-04T00:03:31.673Z,71
2023-06-04T00:04:31.621Z,71
2023-06-04T00:05:31.566Z,72
2023-06-04T00:06:31.570Z,72
2023-06-04T00:07:31.581Z,72
2023-06-04T00:08:31.595Z,72
2023-06-04T00:09:31.563Z,72
2023-06-04T00:10:31.651Z,71
2023-06-04T00:11:31.592Z,71
2023-06-04T00:12:31.547Z,71
2023-06-04T00:13:31.612Z,71
2023-06-04T00:14:31.574Z,71
2023-06-04T00:15:31.585Z,72
2023-06-04T00:16:31.560Z,72
2023-06-04T00:17:31.610Z,72
2023-06-04T00:18:31.561Z,72
2023-06-04T00:19:31.587Z,72
2023-06-04T00:20:31.557Z,72
2023-06-04T00:21:31.597Z,72
2023-06-04T00:22:31.556Z,72
2023-06-04T00:23:31.603Z,72
2023-06-04T00:24:31.546Z,72
2023-06-04T00:25:31.566Z,72
2023-06-04T00:26:31.568Z,72
2023-06-04T00:27:31.566Z,72
2023-06-04T00:28:31.575Z,71
2023-06-04T00:29:31.573Z,71
2023-06-04T00:30:31.652Z,71
2023-06-04T00:31:31.610Z,71
2023-06-04T00:32:31.610Z,71
2023-06-04T00:33:31.563Z,71
2023-06-04T00:34:31.582Z,71
2023-06-04T00:35:31.598Z,71
2023-06-04T00:36:31.555Z,72
2023-06-04T00:37:31.580Z,72
2023-06-04T00:38:31.570Z,72
2023-06-04T00:39:31.591Z,72
2023-06-04T00:40:31.551Z,72
2023-06-04T00:41:31.562Z,72
2023-06-04T00:42:31.596Z,72
2023-06-04T00:43:31.588Z,72
2023-06-04T00:44:31.557Z,72
2023-06-04T00:45:31.607Z,72
2023-06-04T00:46:31.564Z,72
2023-06-04T00:47:31.624Z,72
2023-06-04T00:48:31.592Z,72
2023-06-04T00:49:31.547Z,72
2023-06-04T00:50:31.582Z,72
2023-06-04T00:51:31.586Z,72
2023-06-04T00:52:31.572Z,72
2023-06-04T00:53:31.699Z,72
2023-06-04T00:54:31.599Z,72
2023-06-04T00:55:31.615Z,72
2023-06-04T00:56:31.574Z,72
2023-06-04T00:57:31.601Z,72
2023-06-04T00:58:31.635Z,72
2023-06-04T00:59:31.581Z,72
2023-06-04T01:00:31.548Z,72
2023-06-04T01:01:31.654Z,72
2023-06-04T01:02:31.572Z,72
2023-06-04T01:03:31.574Z,72
2023-06-04T01:04:31.601Z,72
2023-06-04T01:05:33.025Z,72
2023-06-04T01:06:31.573Z,72
2023-06-04T01:07:31.587Z,72
2023-06-04T01:08:31.569Z,72
2023-06-04T01:09:31.590Z,72
2023-06-04T01:10:31.537Z,72
2023-06-04T01:11:31.564Z,72
2023-06-04T01:12:31.574Z,72
2023-06-04T01:13:31.536Z,72
2023-06-04T01:14:31.578Z,72
2023-06-04T01:15:31.566Z,72
2023-06-04T01:16:31.575Z,72
2023-06-04T01:17:31.584Z,73
2023-06-04T01:18:31.583Z,73
2023-06-04T01:19:31.530Z,73
2023-06-04T01:20:31.555Z,73
2023-06-04T01:21:31.538Z,74
2023-06-04T01:22:31.580Z,74
2023-06-04T01:23:31.593Z,74
2023-06-04T01:24:31.571Z,74
2023-06-04T01:25:31.559Z,73
2023-06-04T01:26:31.568Z,73
2023-06-04T01:27:31.554Z,73
2023-06-04T01:28:31.595Z,73
2023-06-04T01:29:31.594Z,73
2023-06-04T01:30:31.583Z,72
2023-06-04T01:31:31.571Z,71
2023-06-04T01:32:31.647Z,71
2023-06-04T01:33:31.574Z,70
2023-06-04T01:34:31.582Z,70
2023-06-04T01:35:31.532Z,70
2023-06-04T01:36:31.621Z,70
2023-06-04T01:37:31.534Z,70
2023-06-04T01:38:31.572Z,69
2023-06-04T01:39:31.537Z,68
2023-06-04T01:40:31.680Z,68
2023-06-04T01:41:31.704Z,69
2023-06-04T01:42:31.714Z,69
2023-06-04T01:43:31.826Z,70
2023-06-04T01:44:31.699Z,71
2023-06-04T01:45:31.751Z,72
2023-06-04T01:46:31.782Z,73
2023-06-04T01:47:31.661Z,73
2023-06-04T01:48:31.729Z,73
2023-06-04T01:49:31.690Z,74
2023-06-04T01:50:31.674Z,74
2023-06-04T01:51:31.747Z,75
2023-06-04T01:52:31.743Z,74
2023-06-04T01:53:31.681Z,74
2023-06-04T01:54:31.697Z,75
2023-06-04T01:55:31.723Z,75
2023-06-04T01:56:31.714Z,74
2023-06-04T01:57:31.704Z,75
2023-06-04T01:58:31.645Z,75
2023-06-04T01:59:31.785Z,75
2023-06-04T02:00:31.677Z,74
2023-06-04T02:01:31.626Z,74
2023-06-04T02:02:31.597Z,73
2023-06-04T02:03:31.724Z,74
2023-06-04T02:04:31.664Z,73
2023-06-04T02:05:31.559Z,73
2023-06-04T02:06:31.585Z,73
2023-06-04T02:07:31.539Z,72
2023-06-04T02:08:31.585Z,73
2023-06-04T02:09:31.571Z,73
2023-06-04T02:10:31.550Z,73
2023-06-04T02:11:31.598Z,74
2023-06-04T02:12:31.569Z,73
2023-06-04T02:13:31.573Z,73
2023-06-04T02:14:31.626Z,73
2023-06-04T02:15:31.592Z,73
2023-06-04T02:16:31.606Z,73
2023-06-04T02:17:31.616Z,73
2023-06-04T02:18:31.571Z,73
2023-06-04T02:19:31.604Z,74
2023-06-04T02:20:31.583Z,74
2023-06-04T02:21:31.577Z,73
2023-06-04T02:22:31.610Z,74
2023-06-04T02:23:31.619Z,74
2023-06-04T02:24:31.553Z,74
2023-06-04T02:25:31.574Z,74
2023-06-04T02:26:31.566Z,74
2023-06-04T02:27:31.592Z,74
2023-06-04T02:28:31.572Z,74
2023-06-04T02:29:31.576Z,75
2023-06-04T02:30:31.574Z,76
2023-06-04T02:31:31.630Z,76
2023-06-04T02:32:31.623Z,77
2023-06-04T02:33:31.560Z,77
2023-06-04T02:34:31.565Z,78
2023-06-04T02:35:31.577Z,78
2023-06-04T02:36:31.563Z,78
2023-06-04T02:37:31.599Z,77
2023-06-04T02:38:31.558Z,78
2023-06-04T02:39:31.625Z,77
2023-06-04T02:40:31.564Z,77
2023-06-04T02:41:31.568Z,78
2023-06-04T02:42:31.562Z,79
2023-06-04T02:43:31.578Z,80
2023-06-04T02:44:31.558Z,81
2023-06-04T02:45:31.556Z,81
2023-06-04T02:46:31.715Z,82
2023-06-04T02:47:31.587Z,82
2023-06-04T02:48:31.560Z,83
2023-06-04T02:49:31.581Z,83
2023-06-04T02:50:31.598Z,83
2023-06-04T02:51:31.603Z,84
2023-06-04T02:52:31.585Z,84
2023-06-04T02:53:31.560Z,84
2023-06-04T02:54:31.539Z,84
2023-06-04T02:55:31.567Z,84
2023-06-04T02:56:31.576Z,84
2023-06-04T02:57:31.615Z,83
2023-06-04T02:58:31.521Z,81
2023-06-04T02:59:31.560Z,80
2023-06-04T03:00:31.576Z,78
2023-06-04T03:01:31.623Z,77
2023-06-04T03:02:31.624Z,77
2023-06-04T03:03:31.692Z,75
2023-06-04T03:04:31.582Z,75
2023-06-04T03:05:31.563Z,75
2023-06-04T03:06:31.537Z,75
2023-06-04T03:07:31.547Z,73
2023-06-04T03:08:31.549Z,74
2023-06-04T03:09:31.549Z,73
2023-06-04T03:10:31.586Z,74
2023-06-04T03:11:31.579Z,74
2023-06-04T03:12:31.677Z,72
2023-06-04T03:13:31.561Z,71
2023-06-04T03:14:31.543Z,72
2023-06-04T03:15:31.663Z,71
2023-06-04T03:16:31.756Z,71
2023-06-04T03:17:31.803Z,70
2023-06-04T03:18:31.539Z,72
2023-06-04T03:19:31.685Z,70
2023-06-04T03:20:31.670Z,71
2023-06-04T03:21:31.630Z,70
2023-06-04T03:22:31.718Z,71
2023-06-04T03:23:31.625Z,70
2023-06-04T03:24:31.648Z,68
2023-06-04T03:25:31.591Z,68
2023-06-04T03:26:31.576Z,67
2023-06-04T03:27:31.565Z,66
2023-06-04T03:28:31.704Z,67
2023-06-04T03:29:31.672Z,66
2023-06-04T03:30:31.555Z,66
2023-06-04T03:31:31.739Z,65
2023-06-04T03:32:31.583Z,65
2023-06-04T03:33:31.721Z,65
2023-06-04T03:34:33.726Z,65
2023-06-04T03:35:31.577Z,65
2023-06-04T03:36:31.564Z,65
2023-06-04T03:37:31.621Z,66
2023-06-04T03:38:31.687Z,67
2023-06-04T03:39:31.682Z,67
2023-06-04T03:40:31.632Z,67
2023-06-04T03:41:31.670Z,66
2023-06-04T03:42:31.628Z,65
2023-06-04T03:43:31.556Z,66
2023-06-04T03:44:31.735Z,66
2023-06-04T03:45:31.602Z,66
2023-06-04T03:46:31.684Z,67
2023-06-04T03:47:31.641Z,66
2023-06-04T03:48:31.577Z,66
2023-06-04T03:49:31.770Z,67
2023-06-04T03:50:31.547Z,66
2023-06-04T03:51:31.533Z,66
2023-06-04T03:52:31.685Z,66
2023-06-04T03:53:31.657Z,66
2023-06-04T03:54:31.628Z,67
2023-06-04T03:55:31.552Z,67
2023-06-04T03:56:31.579Z,67
2023-06-04T03:57:31.561Z,67
2023-06-04T03:58:31.560Z,67
2023-06-04T03:59:31.575Z,65
2023-06-04T04:00:31.577Z,65
2023-06-04T04:01:31.551Z,65
2023-06-04T04:02:31.752Z,66
2023-06-04T04:03:31.613Z,66
2023-06-04T04:04:31.558Z,66
2023-06-04T04:05:31.562Z,66
2023-06-04T04:06:31.538Z,66
2023-06-04T04:07:31.564Z,66
2023-06-04T04:08:31.553Z,66
2023-06-04T04:09:31.553Z,67
2023-06-04T04:10:31.554Z,68
2023-06-04T04:11:31.581Z,67
2023-06-04T04:12:31.584Z,67
2023-06-04T04:13:31.551Z,67
2023-06-04T04:14:31.550Z,68
2023-06-04T04:15:31.544Z,68
2023-06-04T04:16:31.572Z,66
2023-06-04T04:17:31.588Z,67
2023-06-04T04:18:31.573Z,67
2023-06-04T04:19:31.550Z,68
2023-06-04T04:20:31.585Z,67
2023-06-04T04:21:31.565Z,67
2023-06-04T04:22:31.565Z,67
2023-06-04T04:23:31.584Z,67
2023-06-04T04:24:31.571Z,67
2023-06-04T04:25:31.536Z,67
2023-06-04T04:26:31.566Z,67
2023-06-04T04:27:31.624Z,67
2023-06-04T04:28:31.546Z,67
2023-06-04T04:29:31.516Z,67
2023-06-04T04:30:31.559Z,66
2023-06-04T04:31:31.722Z,66
2023-06-04T04:32:31.531Z,66
2023-06-04T04:33:31.556Z,65
2023-06-04T04:34:31.558Z,64
2023-06-04T04:35:31.553Z,62
2023-06-04T04:36:31.551Z,62
2023-06-04T04:37:31.606Z,62
2023-06-04T04:38:31.561Z,62
2023-06-04T04:39:31.578Z,62
2023-06-04T04:40:31.561Z,62
2023-06-04T04:41:31.598Z,62
2023-06-04T04:42:31.578Z,62
2023-06-04T04:43:31.574Z,62
2023-06-04T04:44:31.567Z,62
2023-06-04T04:45:31.543Z,61
2023-06-04T04:46:31.664Z,61
2023-06-04T04:47:31.546Z,62
2023-06-04T04:48:31.555Z,62
2023-06-04T04:49:31.570Z,62
2023-06-04T04:50:31.611Z,62
2023-06-04T04:51:31.572Z,63
2023-06-04T04:52:31.539Z,63
2023-06-04T04:53:31.539Z,63
2023-06-04T04:54:31.975Z,62
2023-06-04T04:55:31.546Z,62
2023-06-04T04:56:31.624Z,61
2023-06-04T04:57:31.566Z,61
2023-06-04T04:58:31.562Z,61
2023-06-04T04:59:31.560Z,61
2023-06-04T05:00:31.550Z,61
2023-06-04T05:01:31.779Z,61
2023-06-04T05:02:31.598Z,61
2023-06-04T05:03:31.562Z,60
2023-06-04T05:04:31.655Z,60
2023-06-04T05:05:31.600Z,61
2023-06-04T05:06:31.568Z,60
2023-06-04T05:07:31.564Z,60
2023-06-04T05:08:31.553Z,60
2023-06-04T05:09:31.616Z,60
2023-06-04T05:10:31.571Z,60
2023-06-04T05:11:31.596Z,60
2023-06-04T05:12:31.576Z,59
2023-06-04T05:13:31.541Z,59
2023-06-04T05:14:31.549Z,59
2023-06-04T05:15:31.570Z,58
2023-06-04T05:16:31.597Z,58
2023-06-04T05:17:31.775Z,58
2023-06-04T05:18:31.533Z,57
2023-06-04T05:19:31.599Z,57
2023-06-04T05:20:31.548Z,57
2023-06-04T05:21:31.572Z,57
2023-06-04T05:22:31.531Z,57
2023-06-04T05:23:31.610Z,57
2023-06-04T05:24:31.524Z,57
2023-06-04T05:25:31.555Z,56
2023-06-04T05:26:31.568Z,56
2023-06-04T05:27:31.551Z,56
2023-06-04T05:28:31.536Z,56
2023-06-04T05:29:31.562Z,55
2023-06-04T05:30:31.643Z,56
2023-06-04T05:31:31.609Z,55
2023-06-04T05:32:31.621Z,55
2023-06-04T05:33:31.547Z,55
2023-06-04T05:34:31.556Z,54
2023-06-04T05:35:31.554Z,55
2023-06-04T05:36:31.524Z,55
2023-06-04T05:37:31.572Z,55
2023-06-04T05:38:31.591Z,55
2023-06-04T05:39:31.532Z,54
2023-06-04T05:40:31.535Z,54
2023-06-04T05:41:31.533Z,54
2023-06-04T05:42:31.524Z,55
2023-06-04T05:43:31.567Z,55
2023-06-04T05:44:31.554Z,55
2023-06-04T05:45:31.547Z,55
2023-06-04T05:46:31.603Z,55
2023-06-04T05:47:31.596Z,55
2023-06-04T05:48:31.551Z,55
2023-06-04T05:49:31.585Z,55
2023-06-04T05:50:31.533Z,55
2023-06-04T05:51:31.518Z,56
2023-06-04T05:52:31.564Z,56
2023-06-04T05:53:31.553Z,56
2023-06-04T05:54:31.554Z,56
2023-06-04T05:55:31.514Z,56
2023-06-04T05:56:31.559Z,56
2023-06-04T05:57:31.694Z,56
2023-06-04T05:58:31.553Z,56
2023-06-04T05:59:31.553Z,56
2023-06-04T06:00:31.552Z,55
2023-06-04T06:01:31.570Z,55
2023-06-04T06:02:31.578Z,55
2023-06-04T06:03:31.689Z,55
2023-06-04T06:04:31.594Z,54
2023-06-04T06:05:31.571Z,54
2023-06-04T06:06:31.549Z,54
2023-06-04T06:07:31.582Z,54
2023-06-04T06:08:31.570Z,54
2023-06-04T06:09:31.576Z,54
2023-06-04T06:10:31.598Z,54
2023-06-04T06:11:31.564Z,55
2023-06-04T06:12:31.624Z,55
2023-06-04T06:13:31.614Z,56
2023-06-04T06:14:31.567Z,55
2023-06-04T06:15:31.553Z,56
2023-06-04T06:16:31.554Z,56
2023-06-04T06:17:31.610Z,55
2023-06-04T06:18:31.566Z,55
2023-06-04T06:19:31.551Z,54
2023-06-04T06:20:31.512Z,54
2023-06-04T06:21:31.555Z,54
2023-06-04T06:22:31.580Z,54
2023-06-04T06:23:31.563Z,54
2023-06-04T06:24:31.539Z,54
2023-06-04T06:25:31.551Z,54
2023-06-04T06:26:31.591Z,54
2023-06-04T06:27:31.541Z,54
2023-06-04T06:28:31.540Z,53
2023-06-04T06:29:31.549Z,53
2023-06-04T06:30:31.546Z,53
2023-06-04T06:31:31.602Z,52
2023-06-04T06:32:31.551Z,52
2023-06-04T06:33:31.530Z,51
2023-06-04T06:34:31.563Z,51
2023-06-04T06:35:31.593Z,53
2023-06-04T06:36:31.555Z,53
2023-06-04T06:37:31.541Z,52
2023-06-04T06:38:31.540Z,53
2023-06-04T06:39:31.570Z,53
2023-06-04T06:40:31.584Z,53
2023-06-04T06:41:31.535Z,53
2023-06-04T06:42:31.591Z,54
2023-06-04T06:43:31.553Z,54
2023-06-04T06:44:31.534Z,54
2023-06-04T06:45:31.517Z,53
2023-06-04T06:46:31.582Z,53
2023-06-04T06:47:31.571Z,53
2023-06-04T06:48:31.580Z,53
2023-06-04T06:49:31.524Z,53
2023-06-04T06:50:31.582Z,53
2023-06-04T06:51:31.540Z,52
2023-06-04T06:52:34.469Z,52
2023-06-04T06:53:31.522Z,52
2023-06-04T06:54:31.556Z,52
2023-06-04T06:55:31.546Z,51
2023-06-04T06:56:31.544Z,51
2023-06-04T06:57:31.516Z,51
2023-06-04T06:58:31.539Z,51
2023-06-04T06:59:31.553Z,51
2023-06-04T07:00:32.077Z,51
2023-06-04T07:01:31.625Z,51
2023-06-04T07:02:31.590Z,51
2023-06-04T07:03:31.587Z,52
2023-06-04T07:04:31.574Z,52
2023-06-04T07:05:31.548Z,52
2023-06-04T07:06:31.535Z,51
2023-06-04T07:07:31.524Z,51
2023-06-04T07:08:31.542Z,50
2023-06-04T07:09:31.566Z,51
2023-06-04T07:10:31.515Z,51
2023-06-04T07:11:31.574Z,51
2023-06-04T07:12:31.534Z,51
2023-06-04T07:13:31.587Z,50
2023-06-04T07:14:31.522Z,51
2023-06-04T07:15:31.552Z,50
2023-06-04T07:16:31.609Z,50
2023-06-04T07:17:31.592Z,50
2023-06-04T07:18:31.524Z,50
2023-06-04T07:19:31.555Z,50
2023-06-04T07:20:31.551Z,49
2023-06-04T07:21:31.559Z,48
2023-06-04T07:22:31.513Z,48
2023-06-04T07:23:31.658Z,49
2023-06-04T07:24:31.528Z,50
2023-06-04T07:25:31.544Z,49
2023-06-04T07:26:33.350Z,49
2023-06-04T07:27:31.584Z,48
2023-06-04T07:28:31.534Z,49
2023-06-04T07:29:31.537Z,49
2023-06-04T07:30:31.540Z,49
2023-06-04T07:31:31.580Z,49
2023-06-04T07:32:31.589Z,49
2023-06-04T07:33:31.518Z,49
2023-06-04T07:34:31.507Z,49
2023-06-04T07:35:31.554Z,49
2023-06-04T07:36:31.509Z,49
2023-06-04T07:37:31.556Z,48
2023-06-04T07:38:31.509Z,48
2023-06-04T07:39:31.531Z,48
2023-06-04T07:40:31.569Z,49
2023-06-04T07:41:31.590Z,48
2023-06-04T07:42:31.506Z,47
2023-06-04T07:43:31.552Z,48
2023-06-04T07:44:31.507Z,49
2023-06-04T07:45:33.892Z,48
2023-06-04T07:46:31.559Z,48
2023-06-04T07:47:31.561Z,49
2023-06-04T07:48:31.540Z,48
2023-06-04T07:49:31.582Z,48
2023-06-04T07:50:34.825Z,49
2023-06-04T07:51:31.543Z,48
2023-06-04T07:52:31.632Z,47
2023-06-04T07:53:31.567Z,48
2023-06-04T07:54:31.541Z,48
2023-06-04T07:55:31.580Z,47
2023-06-04T07:56:31.508Z,48
2023-06-04T07:57:31.561Z,47
2023-06-04T07:58:31.533Z,47
2023-06-04T07:59:31.542Z,46
2023-06-04T08:00:31.528Z,48
2023-06-04T08:01:31.578Z,47
2023-06-04T08:02:31.619Z,46
2023-06-04T08:03:31.677Z,46
2023-06-04T08:04:31.550Z,47
2023-06-04T08:05:31.553Z,46
2023-06-04T08:06:31.523Z,47
2023-06-04T08:07:31.538Z,46
2023-06-04T08:08:31.536Z,46
2023-06-04T08:09:31.571Z,45
2023-06-04T08:10:31.560Z,45
2023-06-04T08:11:31.525Z,47
2023-06-04T08:12:31.522Z,48
2023-06-04T08:13:31.534Z,48
2023-06-04T08:14:31.519Z,49
2023-06-04T08:15:31.528Z,49
2023-06-04T08:16:31.562Z,48
2023-06-04T08:17:31.655Z,48
2023-06-04T08:18:31.532Z,48
2023-06-04T08:19:31.548Z,49
2023-06-04T08:20:31.530Z,49
2023-06-04T08:21:31.593Z,49
2023-06-04T08:22:31.538Z,49
2023-06-04T08:23:31.609Z,50
2023-06-04T08:24:31.560Z,51
2023-06-04T08:25:31.541Z,51
2023-06-04T08:26:31.579Z,51
2023-06-04T08:27:31.550Z,51
2023-06-04T08:28:31.509Z,51
2023-06-04T08:29:31.578Z,51
2023-06-04T08:30:31.560Z,50
2023-06-04T08:31:31.568Z,49
2023-06-04T08:32:31.537Z,49
2023-06-04T08:33:31.541Z,49
2023-06-04T08:34:31.569Z,49
2023-06-04T08:35:31.540Z,49
2023-06-04T08:36:31.582Z,49
2023-06-04T08:37:31.525Z,50
2023-06-04T08:38:31.536Z,49
2023-06-04T08:39:31.529Z,49
2023-06-04T08:40:31.505Z,48
2023-06-04T08:41:31.611Z,48
2023-06-04T08:42:31.543Z,48
2023-06-04T08:43:31.576Z,47
2023-06-04T08:44:31.532Z,48
2023-06-04T08:45:31.555Z,48
2023-06-04T08:46:31.533Z,47
2023-06-04T08:47:31.562Z,48
2023-06-04T08:48:31.526Z,47
2023-06-04T08:49:31.555Z,47
2023-06-04T08:50:31.513Z,48
2023-06-04T08:51:31.526Z,49
2023-06-04T08:52:31.540Z,49
2023-06-04T08:53:31.608Z,50
2023-06-04T08:54:31.514Z,49
2023-06-04T08:55:31.557Z,49
2023-06-04T08:56:31.534Z,49
2023-06-04T08:57:31.553Z,49
2023-06-04T08:58:31.514Z,49
2023-06-04T08:59:31.542Z,50
2023-06-04T09:00:31.541Z,50
2023-06-04T09:01:31.606Z,50
2023-06-04T09:02:31.630Z,50
2023-06-04T09:03:31.583Z,51
2023-06-04T09:04:31.541Z,51
2023-06-04T09:05:31.583Z,51
2023-06-04T09:06:31.525Z,51
2023-06-04T09:07:31.517Z,51
2023-06-04T09:08:31.519Z,52
2023-06-04T09:09:31.532Z,51
2023-06-04T09:10:31.613Z,50
2023-06-04T09:11:31.525Z,50
2023-06-04T09:12:33.319Z,50
2023-06-04T09:13:31.507Z,50
2023-06-04T09:14:31.519Z,50
2023-06-04T09:15:31.544Z,50
2023-06-04T09:16:31.582Z,50
2023-06-04T09:17:31.565Z,51
2023-06-04T09:18:31.537Z,51
2023-06-04T09:19:31.605Z,51
2023-06-04T09:20:31.522Z,51
2023-06-04T09:21:31.526Z,51
2023-06-04T09:22:31.526Z,50
2023-06-04T09:23:31.551Z,51
2023-06-04T09:24:31.519Z,50
2023-06-04T09:25:31.534Z,50
2023-06-04T09:26:31.513Z,51
2023-06-04T09:27:31.532Z,51
2023-06-04T09:28:31.512Z,51
2023-06-04T09:29:31.561Z,51
2023-06-04T09:30:31.504Z,50
2023-06-04T09:31:31.601Z,50
2023-06-04T09:32:31.636Z,51
2023-06-04T09:33:31.530Z,51
2023-06-04T09:34:31.678Z,51
2023-06-04T09:35:31.544Z,51
2023-06-04T09:36:31.554Z,52
2023-06-04T09:37:31.550Z,51
2023-06-04T09:38:31.486Z,51
2023-06-04T09:39:31.535Z,51
2023-06-04T09:40:31.616Z,51
2023-06-04T09:41:31.528Z,51
2023-06-04T09:42:31.510Z,51
2023-06-04T09:43:31.545Z,51
2023-06-04T09:44:31.568Z,51
2023-06-04T09:45:31.556Z,51
2023-06-04T09:46:31.563Z,51
2023-06-04T09:47:31.588Z,51
2023-06-04T09:48:31.564Z,51
2023-06-04T09:49:31.558Z,50
2023-06-04T09:50:31.504Z,51
2023-06-04T09:51:31.551Z,50
2023-06-04T09:52:31.503Z,50
2023-06-04T09:53:32.416Z,49
2023-06-04T09:54:31.507Z,49
2023-06-04T09:55:31.552Z,49
2023-06-04T09:56:31.618Z,49
2023-06-04T09:57:31.541Z,47
2023-06-04T09:58:31.528Z,48
2023-06-04T09:59:31.525Z,49
2023-06-04T10:00:31.544Z,49
2023-06-04T10:01:31.620Z,49
2023-06-04T10:02:31.599Z,49
2023-06-04T10:03:31.691Z,49
2023-06-04T10:04:31.513Z,49
2023-06-04T10:05:31.502Z,50
2023-06-04T10:06:31.499Z,50
2023-06-04T10:07:31.567Z,51
2023-06-04T10:08:31.527Z,51
2023-06-04T10:09:33.324Z,51
2023-06-04T10:10:31.455Z,50
2023-06-04T10:11:31.548Z,50
2023-06-04T10:12:31.564Z,50
2023-06-04T10:13:31.508Z,50
2023-06-04T10:14:31.503Z,49
2023-06-04T10:15:31.540Z,49
2023-06-04T10:16:34.898Z,48
2023-06-04T10:17:31.545Z,48
2023-06-04T10:18:31.506Z,48
2023-06-04T10:19:31.587Z,47
2023-06-04T10:20:31.523Z,48
2023-06-04T10:21:31.493Z,49
2023-06-04T10:22:31.507Z,48
2023-06-04T10:23:31.550Z,47
2023-06-04T10:24:31.520Z,47
2023-06-04T10:25:31.485Z,48
2023-06-04T10:26:31.516Z,48
2023-06-04T10:27:31.569Z,49
2023-06-04T10:28:31.513Z,48
2023-06-04T10:29:31.519Z,48
2023-06-04T10:30:31.531Z,48
2023-06-04T10:31:31.675Z,48
2023-06-04T10:32:31.576Z,48
2023-06-04T10:33:31.500Z,48
2023-06-04T10:34:31.535Z,48
2023-06-04T10:35:31.521Z,48
2023-06-04T10:36:31.528Z,48
2023-06-04T10:37:31.514Z,48
2023-06-04T10:38:31.541Z,48
2023-06-04T10:39:31.533Z,48
2023-06-04T10:40:31.509Z,48
2023-06-04T10:41:31.544Z,48
2023-06-04T10:42:31.481Z,48
2023-06-04T10:43:31.507Z,48
2023-06-04T10:44:31.512Z,48
2023-06-04T10:45:31.580Z,49
2023-06-04T10:46:31.561Z,49
2023-06-04T10:47:31.812Z,48
2023-06-04T10:48:31.519Z,48
2023-06-04T10:49:31.514Z,48
2023-06-04T10:50:31.526Z,48
2023-06-04T10:51:31.600Z,48
2023-06-04T10:52:31.540Z,47
2023-06-04T10:53:31.504Z,48
2023-06-04T10:54:31.523Z,48
2023-06-04T10:55:31.532Z,48
2023-06-04T10:56:31.536Z,48
2023-06-04T10:57:31.503Z,47
2023-06-04T10:58:31.502Z,48
2023-06-04T10:59:31.526Z,48
2023-06-04T11:00:31.575Z,47
2023-06-04T11:01:31.548Z,48
2023-06-04T11:02:31.577Z,48
2023-06-04T11:03:31.589Z,48
2023-06-04T11:04:31.524Z,48
2023-06-04T11:05:31.547Z,48
2023-06-04T11:06:31.490Z,48
2023-06-04T11:07:31.526Z,48
2023-06-04T11:08:31.536Z,49
2023-06-04T11:09:33.535Z,49
2023-06-04T11:10:31.493Z,49
2023-06-04T11:11:31.550Z,48
2023-06-04T11:12:31.504Z,48
2023-06-04T11:13:31.515Z,48
2023-06-04T11:14:31.485Z,48
2023-06-04T11:15:31.516Z,48
2023-06-04T11:16:31.637Z,48
2023-06-04T11:17:31.622Z,48
2023-06-04T11:18:31.530Z,48
2023-06-04T11:19:31.614Z,48
2023-06-04T11:20:31.568Z,48
2023-06-04T11:21:31.501Z,48
2023-06-04T11:22:31.645Z,48
2023-06-04T11:23:31.556Z,48
2023-06-04T11:24:31.520Z,48
2023-06-04T11:25:31.516Z,49
2023-06-04T11:26:31.538Z,48
2023-06-04T11:27:36.720Z,48
2023-06-04T11:28:31.539Z,48
2023-06-04T11:29:31.496Z,48
2023-06-04T11:30:31.483Z,49
2023-06-04T11:31:31.532Z,49
2023-06-04T11:32:31.664Z,49
2023-06-04T11:33:31.510Z,49
2023-06-04T11:34:31.502Z,49
2023-06-04T11:35:31.505Z,49
2023-06-04T11:36:31.499Z,48
2023-06-04T11:37:31.732Z,49
2023-06-04T11:38:31.464Z,48
2023-06-04T11:39:31.498Z,48
2023-06-04T11:40:31.519Z,49
2023-06-04T11:41:31.495Z,48
2023-06-04T11:42:31.493Z,48
2023-06-04T11:43:31.504Z,49
2023-06-04T11:44:31.493Z,48
2023-06-04T11:45:31.589Z,48
2023-06-04T11:46:31.514Z,49
2023-06-04T11:47:31.579Z,48
2023-06-04T11:48:31.656Z,47
2023-06-04T11:49:31.510Z,47
2023-06-04T11:50:31.494Z,47
2023-06-04T11:51:31.490Z,47
2023-06-04T11:52:31.507Z,47
2023-06-04T11:53:31.507Z,47
2023-06-04T11:54:31.515Z,47
2023-06-04T11:55:31.517Z,48
2023-06-04T11:56:31.478Z,48
2023-06-04T11:57:31.551Z,48
2023-06-04T11:58:31.512Z,48
2023-06-04T11:59:31.529Z,49
2023-06-04T12:00:31.547Z,49
2023-06-04T12:01:31.516Z,49
2023-06-04T12:02:31.578Z,49
2023-06-04T12:03:31.533Z,49
2023-06-04T12:04:31.479Z,49
2023-06-04T12:05:31.554Z,49
2023-06-04T12:06:31.505Z,48
2023-06-04T12:07:31.510Z,48
2023-06-04T12:08:31.479Z,48
2023-06-04T12:09:31.496Z,48
2023-06-04T12:10:31.520Z,48
2023-06-04T12:11:31.532Z,48
2023-06-04T12:12:31.480Z,47
2023-06-04T12:13:31.520Z,48
2023-06-04T12:14:31.511Z,47
2023-06-04T12:15:31.512Z,48
2023-06-04T12:16:31.531Z,48
2023-06-04T12:17:31.573Z,48
2023-06-04T12:18:31.546Z,48
2023-06-04T12:19:31.526Z,47
2023-06-04T12:20:31.555Z,47
2023-06-04T12:21:31.565Z,48
2023-06-04T12:22:31.547Z,47
2023-06-04T12:23:31.529Z,46
2023-06-04T12:24:31.500Z,47
2023-06-04T12:25:31.513Z,47
2023-06-04T12:26:31.489Z,47
2023-06-04T12:27:31.504Z,46
2023-06-04T12:28:31.500Z,46
2023-06-04T12:29:31.508Z,46
2023-06-04T12:30:31.540Z,46
2023-06-04T12:31:31.599Z,47
2023-06-04T12:32:31.583Z,46
2023-06-04T12:33:31.534Z,46
2023-06-04T12:34:31.503Z,46
2023-06-04T12:35:31.495Z,46
2023-06-04T12:36:31.484Z,46
2023-06-04T12:37:31.478Z,46
2023-06-04T12:38:31.515Z,46
2023-06-04T12:39:31.503Z,46
2023-06-04T12:40:31.493Z,45
2023-06-04T12:41:31.498Z,45
2023-06-04T12:42:31.514Z,45
2023-06-04T12:43:31.513Z,45
2023-06-04T12:44:33.924Z,45
2023-06-04T12:45:31.508Z,44
2023-06-04T12:46:31.524Z,43
2023-06-04T12:47:31.584Z,43
2023-06-04T12:48:31.553Z,43
2023-06-04T12:49:31.512Z,43
2023-06-04T12:50:31.514Z,43
2023-06-04T12:51:31.512Z,43
2023-06-04T12:52:31.496Z,43
2023-06-04T12:53:31.483Z,44
2023-06-04T12:54:31.541Z,43
2023-06-04T12:55:31.527Z,44
2023-06-04T12:56:31.494Z,44
2023-06-04T12:57:31.512Z,44
2023-06-04T12:58:31.527Z,45
2023-06-04T12:59:31.501Z,44
2023-06-04T13:00:31.468Z,44
2023-06-04T13:01:31.487Z,44
2023-06-04T13:02:31.666Z,44
2023-06-04T13:03:31.550Z,43
2023-06-04T13:04:31.678Z,43
2023-06-04T13:05:31.493Z,44
2023-06-04T13:06:31.518Z,43
2023-06-04T13:07:31.543Z,42
2023-06-04T13:08:31.533Z,41
2023-06-04T13:09:31.513Z,43
2023-06-04T13:10:31.510Z,43
2023-06-04T13:11:31.501Z,42
2023-06-04T13:12:31.506Z,43
2023-06-04T13:13:31.483Z,43
2023-06-04T13:14:31.543Z,44
2023-06-04T13:15:31.500Z,44
2023-06-04T13:16:31.539Z,44
2023-06-04T13:17:31.538Z,44
2023-06-04T13:18:31.499Z,44
2023-06-04T13:19:31.562Z,44
2023-06-04T13:20:31.509Z,42
2023-06-04T13:21:31.509Z,43
2023-06-04T13:22:31.494Z,42
2023-06-04T13:23:45.437Z,43
2023-06-04T13:24:31.671Z,43
2023-06-04T13:25:31.553Z,43
2023-06-04T13:26:31.534Z,43
2023-06-04T13:27:31.532Z,43
2023-06-04T13:28:31.498Z,43
2023-06-04T13:29:31.480Z,43
2023-06-04T13:30:31.511Z,44
2023-06-04T13:31:31.520Z,43
2023-06-04T13:32:31.564Z,44
2023-06-04T13:33:31.501Z,44
2023-06-04T13:34:31.484Z,44
2023-06-04T13:35:31.480Z,44
2023-06-04T13:36:31.508Z,44
2023-06-04T13:37:31.505Z,44
2023-06-04T13:38:31.501Z,44
2023-06-04T13:39:31.535Z,44
2023-06-04T13:40:31.550Z,45
2023-06-04T13:41:31.525Z,44
2023-06-04T13:42:31.535Z,45
2023-06-04T13:43:31.527Z,44
2023-06-04T13:44:31.545Z,44
2023-06-04T13:45:31.478Z,44
2023-06-04T13:46:31.540Z,44
2023-06-04T13:47:31.581Z,45
2023-06-04T13:48:31.488Z,45
2023-06-04T13:49:31.524Z,45
2023-06-04T13:50:31.503Z,45
2023-06-04T13:51:31.523Z,45
2023-06-04T13:52:31.512Z,45
2023-06-04T13:53:31.500Z,45
2023-06-04T13:54:31.509Z,44
2023-06-04T13:55:31.520Z,45
2023-06-04T13:56:31.622Z,44
2023-06-04T13:57:31.473Z,44
2023-06-04T13:58:31.506Z,45
2023-06-04T13:59:31.569Z,44
2023-06-04T14:00:31.542Z,44
2023-06-04T14:01:31.597Z,44
2023-06-04T14:02:31.583Z,44
2023-06-04T14:03:31.556Z,44
2023-06-04T14:04:31.519Z,44
2023-06-04T14:05:31.542Z,44
2023-06-04T14:06:31.472Z,44
2023-06-04T14:07:31.500Z,44
2023-06-04T14:08:31.489Z,43
2023-06-04T14:09:31.477Z,44
2023-06-04T14:10:31.498Z,43
2023-06-04T14:11:31.519Z,43
2023-06-04T14:12:31.496Z,43
2023-06-04T14:13:31.512Z,43
2023-06-04T14:14:31.500Z,43
2023-06-04T14:15:31.473Z,43